Time;durP1;ratioP1;P1;durP2;ratioP2;P2;SDS_P1;SDS_P2;PMS_P1;PMS_P2;Temp;Humidity;BMP_temperature;BMP_pressure;BME280_temperature;BME280_humidity;BME280_pressure;Samples;Min_cycle;Max_cycle;Signal;HPM_P1;HPM_P2
2022/11/11 00:01:07;;;;;;;13.77;7.28;;;10.70;99.90;;;;;;5025894;28;20056;-66
2022/11/11 00:03:33;;;;;;;12.60;7.00;;;10.80;99.90;;;;;;5025843;28;20041;-65
2022/11/11 00:06:08;;;;;;;14.52;6.80;;;10.70;99.90;;;;;;5028468;28;20411;-65
2022/11/11 00:08:34;;;;;;;15.60;6.32;;;10.80;99.90;;;;;;5038997;28;23047;-65
2022/11/11 00:11:10;;;;;;;20.20;7.80;;;10.80;99.90;;;;;;5035227;28;20038;-65
2022/11/11 00:13:37;;;;;;;18.75;6.88;;;10.80;99.90;;;;;;5025950;28;20107;-63
2022/11/11 00:16:10;;;;;;;18.15;7.60;;;10.80;99.90;;;;;;5028405;28;20043;-64
2022/11/11 00:27:04;;;;;;;13.00;7.45;;;10.90;99.90;;;;;;5028802;28;20405;-65
2022/11/11 00:29:30;;;;;;;13.68;7.22;;;10.90;99.90;;;;;;5030800;28;20076;-64
2022/11/11 00:34:39;;;;;;;18.30;8.02;;;10.90;99.90;;;;;;5030591;28;20041;-63
2022/11/11 00:37:05;;;;;;;14.35;7.97;;;10.90;99.90;;;;;;5040943;28;20119;-64
2022/11/11 00:39:31;;;;;;;19.13;7.70;;;10.90;99.90;;;;;;5041263;28;20042;-65
2022/11/11 00:41:57;;;;;;;18.10;8.00;;;10.90;99.90;;;;;;5030074;28;20396;-66
2022/11/11 00:44:22;;;;;;;15.85;8.00;;;11.00;99.90;;;;;;5030507;28;20389;-65
2022/11/11 00:52:16;;;;;;;16.75;7.93;;;11.00;99.90;;;;;;5033711;28;20136;-64
2022/11/11 00:54:42;;;;;;;14.80;7.80;;;11.00;99.90;;;;;;5027788;28;20124;-63
2022/11/11 00:57:07;;;;;;;22.08;8.50;;;11.00;99.90;;;;;;5032179;28;20551;-64
2022/11/11 00:59:33;;;;;;;16.17;8.27;;;11.00;99.90;;;;;;5028790;28;20049;-65
2022/11/11 01:01:59;;;;;;;17.52;8.15;;;11.00;99.90;;;;;;5028496;28;20029;-64
2022/11/11 01:04:24;;;;;;;14.82;8.30;;;11.00;99.90;;;;;;5028480;28;20037;-66
2022/11/11 01:06:50;;;;;;;16.83;8.13;;;11.00;99.90;;;;;;5031873;28;20440;-65
2022/11/11 01:09:15;;;;;;;17.10;7.85;;;11.00;99.90;;;;;;5023657;28;20108;-66
2022/11/11 01:11:41;;;;;;;17.23;8.45;;;11.00;99.90;;;;;;5026547;28;20087;-64
2022/11/11 01:14:06;;;;;;;16.23;8.52;;;10.90;99.90;;;;;;5028107;28;20034;-64
2022/11/11 01:16:32;;;;;;;13.98;7.85;;;10.90;99.90;;;;;;5036869;28;20038;-64
2022/11/11 01:18:57;;;;;;;17.70;8.10;;;10.90;99.90;;;;;;5030937;28;20033;-63
2022/11/11 01:21:24;;;;;;;15.07;8.27;;;10.90;99.90;;;;;;5027379;28;20116;-64
2022/11/11 01:23:51;;;;;;;14.80;7.85;;;10.80;99.90;;;;;;5034982;28;20041;-65
2022/11/11 01:26:23;;;;;;;18.98;9.05;;;10.70;99.90;;;;;;5037701;28;20053;-63
2022/11/11 01:28:54;;;;;;;20.80;9.65;;;10.70;99.90;;;;;;5037448;28;20511;-64
2022/11/11 01:31:21;;;;;;;16.55;8.88;;;10.70;99.90;;;;;;5036302;28;20045;-64
2022/11/11 01:33:47;;;;;;;18.98;9.00;;;10.70;99.90;;;;;;5024422;28;20033;-64
2022/11/11 01:36:13;;;;;;;19.67;8.77;;;10.70;99.90;;;;;;5029984;28;20029;-64
2022/11/11 01:38:41;;;;;;;17.08;8.70;;;10.70;99.90;;;;;;5040127;28;20044;-64
2022/11/11 01:43:52;;;;;;;18.30;8.38;;;10.60;99.90;;;;;;5038833;28;20091;-65
2022/11/11 01:46:42;;;;;;;15.48;9.10;;;10.60;99.90;;;;;;5043028;28;20527;-64
2022/11/11 01:49:48;;;;;;;17.13;8.98;;;10.50;99.90;;;;;;5028436;28;20040;-63
2022/11/11 01:52:49;;;;;;;16.83;9.25;;;10.50;99.90;;;;;;5034160;28;20057;-64
2022/11/11 01:55:18;;;;;;;19.60;10.65;;;10.50;99.90;;;;;;5018039;28;20704;-65
2022/11/11 01:57:57;;;;;;;18.48;9.07;;;10.50;99.90;;;;;;5035515;28;20041;-66
2022/11/11 02:00:23;;;;;;;17.10;9.98;;;10.40;99.90;;;;;;5028730;28;20041;-64
2022/11/11 02:02:56;;;;;;;20.42;10.57;;;10.40;99.90;;;;;;5024630;28;20393;-65
2022/11/11 02:05:42;;;;;;;18.25;10.52;;;10.40;99.90;;;;;;5049262;28;20057;-64
2022/11/11 02:08:31;;;;;;;26.20;11.77;;;10.40;99.90;;;;;;5016875;28;20539;-64
2022/11/11 02:11:09;;;;;;;22.08;11.13;;;10.40;99.90;;;;;;5015432;28;20044;-64
2022/11/11 02:16:24;;;;;;;23.70;12.18;;;10.30;99.90;;;;;;5042606;28;20041;-64
2022/11/11 02:18:50;;;;;;;21.35;11.98;;;10.30;99.90;;;;;;5026728;28;20140;-64
2022/11/11 02:21:35;;;;;;;18.08;11.00;;;10.20;99.90;;;;;;5031179;28;20060;-65
2022/11/11 02:24:08;;;;;;;25.13;13.65;;;10.20;99.90;;;;;;5041613;28;20128;-65
2022/11/11 02:26:35;;;;;;;25.48;12.90;;;10.20;99.90;;;;;;5029427;28;20049;-65
2022/11/11 02:29:06;;;;;;;21.65;12.57;;;10.20;99.90;;;;;;5013772;28;20041;-64
2022/11/11 02:31:32;;;;;;;26.13;13.13;;;10.20;99.90;;;;;;5031749;28;20064;-64
2022/11/11 02:33:57;;;;;;;25.02;12.63;;;10.10;99.90;;;;;;5035401;28;20037;-64
2022/11/11 02:36:23;;;;;;;21.10;13.23;;;10.10;99.90;;;;;;5031603;28;20073;-65
2022/11/11 02:38:50;;;;;;;28.00;15.68;;;10.00;99.90;;;;;;5034701;28;20055;-64
2022/11/11 02:44:00;;;;;;;25.98;13.48;;;9.90;99.90;;;;;;5030830;28;20890;-64
2022/11/11 02:46:26;;;;;;;25.42;14.80;;;9.90;99.90;;;;;;5037208;28;20039;-65
2022/11/11 02:48:52;;;;;;;26.80;13.48;;;9.90;99.90;;;;;;5032002;28;20493;-64
2022/11/11 02:51:18;;;;;;;26.45;14.20;;;9.90;99.90;;;;;;5029649;28;20041;-66
2022/11/11 02:53:43;;;;;;;26.40;15.25;;;9.90;99.90;;;;;;5036771;28;20044;-64
2022/11/11 02:56:09;;;;;;;25.20;15.02;;;10.00;99.90;;;;;;5031658;28;20049;-64
2022/11/11 02:58:34;;;;;;;30.98;16.40;;;10.00;99.90;;;;;;5030704;28;20520;-63
2022/11/11 03:01:00;;;;;;;27.25;14.80;;;10.10;99.90;;;;;;5031438;28;20041;-64
2022/11/11 03:03:25;;;;;;;26.25;15.90;;;10.10;99.90;;;;;;5031653;28;20831;-65
2022/11/11 03:05:51;;;;;;;31.50;16.65;;;10.10;99.90;;;;;;5033510;28;20156;-64
2022/11/11 03:08:17;;;;;;;28.52;16.05;;;10.20;99.90;;;;;;5029979;28;20036;-63
2022/11/11 03:10:42;;;;;;;26.63;15.32;;;10.20;99.90;;;;;;5031371;28;20033;-64
2022/11/11 03:13:08;;;;;;;28.02;16.17;;;10.20;99.90;;;;;;5030747;28;20041;-64
2022/11/11 03:15:33;;;;;;;30.13;16.15;;;10.20;99.90;;;;;;5030833;28;20563;-65
2022/11/11 03:17:59;;;;;;;28.23;16.00;;;10.20;99.90;;;;;;5031497;28;20033;-64
2022/11/11 03:23:14;;;;;;;28.65;16.60;;;10.20;99.90;;;;;;5046476;28;20045;-66
2022/11/11 03:25:42;;;;;;;28.90;16.42;;;10.20;99.90;;;;;;5029302;28;20226;-64
2022/11/11 03:28:17;;;;;;;34.00;16.38;;;10.10;99.90;;;;;;5033759;28;20048;-64
2022/11/11 03:30:47;;;;;;;33.67;16.77;;;10.10;99.90;;;;;;5037456;28;20086;-65
2022/11/11 03:33:13;;;;;;;;;;;10.10;99.90;;;;;;5039411;28;20041;-64
2022/11/11 03:35:39;;;;;;;30.45;16.67;;;10.10;99.90;;;;;;5028143;28;20000;-64
2022/11/11 03:38:17;;;;;;;33.47;17.58;;;10.10;99.90;;;;;;5037735;28;20072;-63
2022/11/11 03:40:46;;;;;;;31.73;17.40;;;10.20;99.90;;;;;;5029270;28;20036;-64
2022/11/11 03:43:14;;;;;;;31.17;16.20;;;10.20;99.90;;;;;;5030539;28;20030;-64
2022/11/11 03:45:40;;;;;;;32.47;17.70;;;10.30;99.90;;;;;;5026581;28;20504;-64
2022/11/11 03:48:06;;;;;;;31.25;17.83;;;10.30;99.90;;;;;;5035528;28;20120;-66
2022/11/11 03:50:32;;;;;;;31.88;17.15;;;10.30;99.90;;;;;;5035913;28;20124;-65
2022/11/11 03:52:57;;;;;;;33.45;17.30;;;10.30;99.90;;;;;;5031105;28;20044;-64
2022/11/11 03:55:23;;;;;;;33.85;18.23;;;10.30;99.90;;;;;;5037686;28;20470;-63
2022/11/11 03:57:48;;;;;;;33.47;17.23;;;10.30;99.90;;;;;;5026713;28;20100;-64
2022/11/11 04:00:20;;;;;;;31.25;17.73;;;10.30;99.90;;;;;;5030914;28;20489;-64
2022/11/11 04:11:07;;;;;;;37.28;18.70;;;10.30;99.90;;;;;;5023152;28;20072;-65
2022/11/11 04:16:16;;;;;;;35.65;18.27;;;10.30;99.90;;;;;;5030502;28;20041;-63
2022/11/11 04:21:45;;;;;;;33.25;17.95;;;10.30;99.90;;;;;;5028653;28;20045;-66
2022/11/11 04:27:03;;;;;;;33.95;19.55;;;10.30;99.90;;;;;;5037899;28;20080;-64
2022/11/11 04:29:29;;;;;;;35.17;18.33;;;10.30;99.90;;;;;;5044382;28;20037;-65
2022/11/11 04:34:47;;;;;;;36.70;18.63;;;10.30;99.90;;;;;;5031416;28;20552;-63
2022/11/11 04:37:14;;;;;;;39.53;20.48;;;10.40;99.90;;;;;;5029291;28;20813;-65
2022/11/11 04:42:23;;;;;;;35.60;19.08;;;10.40;99.90;;;;;;5028507;28;20050;-64
2022/11/11 04:47:33;;;;;;;41.33;21.33;;;10.30;99.90;;;;;;5028369;28;20049;-64
2022/11/11 04:49:59;;;;;;;36.13;19.95;;;10.40;99.90;;;;;;5032028;28;20042;-64
2022/11/11 04:52:27;;;;;;;38.97;19.95;;;10.30;99.90;;;;;;5029501;28;20043;-64
2022/11/11 04:57:43;;;;;;;34.88;20.30;;;10.40;99.90;;;;;;5044487;28;20381;-65
2022/11/11 05:00:10;;;;;;;;;;;10.40;99.90;;;;;;5036196;28;20047;-64
2022/11/11 05:05:22;;;;;;;35.38;19.15;;;10.40;99.90;;;;;;5027799;28;20057;-64
2022/11/11 05:10:31;;;;;;;41.10;20.63;;;10.40;99.90;;;;;;5025293;28;20049;-66
2022/11/11 05:21:19;;;;;;;40.30;21.10;;;10.40;99.90;;;;;;5038418;28;20037;-65
2022/11/11 05:21:24;;;;;;;37.25;20.95;;;10.40;99.90;;;;;;5026031;28;20041;-63
2022/11/11 05:26:35;;;;;;;36.45;20.48;;;10.40;99.90;;;;;;5029235;28;20050;-64
2022/11/11 05:29:01;;;;;;;36.08;19.48;;;10.40;99.90;;;;;;5027064;28;20137;-64
2022/11/11 05:31:27;;;;;;;35.42;19.42;;;10.40;99.90;;;;;;5026082;28;20048;-65
2022/11/11 05:33:53;;;;;;;38.88;20.67;;;10.50;99.90;;;;;;5028926;28;20135;-65
2022/11/11 05:36:18;;;;;;;35.80;18.60;;;10.50;99.90;;;;;;5023817;28;20124;-65
2022/11/11 05:38:44;;;;;;;34.88;20.02;;;10.50;99.90;;;;;;5037403;28;20099;-65
2022/11/11 05:41:09;;;;;;;43.45;21.30;;;10.50;99.90;;;;;;5038970;28;20041;-64
2022/11/11 05:43:35;;;;;;;37.00;19.17;;;10.50;99.90;;;;;;5028335;28;20138;-65
2022/11/11 05:46:00;;;;;;;40.47;19.77;;;10.50;99.90;;;;;;5030096;28;20056;-65
2022/11/11 05:48:26;;;;;;;36.25;19.30;;;10.50;99.90;;;;;;5029628;28;20044;-64
2022/11/11 05:50:51;;;;;;;39.40;20.15;;;10.50;99.90;;;;;;5045609;28;20591;-64
2022/11/11 05:53:22;;;;;;;38.17;20.10;;;10.50;99.90;;;;;;5030077;28;20046;-65
2022/11/11 05:55:49;;;;;;;32.95;19.63;;;10.50;99.90;;;;;;5038688;28;20045;-64
2022/11/11 05:58:17;;;;;;;35.90;18.95;;;10.50;99.90;;;;;;5026120;28;20041;-65
2022/11/11 06:00:42;;;;;;;35.58;20.13;;;10.50;99.90;;;;;;5038453;28;20083;-65
2022/11/11 06:03:08;;;;;;;33.45;19.23;;;10.50;99.90;;;;;;5026556;28;20120;-64
2022/11/11 06:05:35;;;;;;;37.28;20.02;;;10.50;99.90;;;;;;5030921;28;20058;-65
2022/11/11 06:08:01;;;;;;;37.92;20.10;;;10.50;99.90;;;;;;5031599;28;20046;-64
2022/11/11 06:10:29;;;;;;;37.92;19.45;;;10.50;99.90;;;;;;5044340;28;20377;-66
2022/11/11 06:13:08;;;;;;;38.40;20.00;;;10.50;99.90;;;;;;5042839;28;20044;-64
2022/11/11 06:15:35;;;;;;;37.83;19.55;;;10.50;99.90;;;;;;5038725;28;20088;-64
2022/11/11 06:18:02;;;;;;;33.70;19.52;;;10.50;99.90;;;;;;5035677;28;20479;-64
2022/11/11 06:20:27;;;;;;;34.22;19.52;;;10.50;99.90;;;;;;5038504;28;20350;-66
2022/11/11 06:22:56;;;;;;;34.72;18.85;;;10.50;99.90;;;;;;5028352;28;20044;-65
2022/11/11 06:28:07;;;;;;;36.20;18.67;;;10.50;99.90;;;;;;5023937;28;20061;-64
2022/11/11 06:30:32;;;;;;;35.08;18.58;;;10.50;99.90;;;;;;5038393;28;20040;-64
2022/11/11 06:32:58;;;;;;;33.00;18.67;;;10.50;99.90;;;;;;5034316;28;20469;-65
2022/11/11 06:35:23;;;;;;;39.28;19.35;;;10.50;99.90;;;;;;5048763;28;20041;-65
2022/11/11 06:37:49;;;;;;;38.25;19.23;;;10.50;99.90;;;;;;5041724;28;20116;-64
2022/11/11 06:40:14;;;;;;;35.97;17.83;;;10.50;99.90;;;;;;5031176;28;20037;-64
2022/11/11 06:42:40;;;;;;;33.55;18.42;;;10.50;99.90;;;;;;5039603;28;20049;-64
2022/11/11 06:45:06;;;;;;;40.17;18.58;;;10.50;99.90;;;;;;5025922;28;20041;-63
2022/11/11 06:47:31;;;;;;;37.97;19.48;;;10.50;99.90;;;;;;5028483;28;20040;-64
2022/11/11 06:49:57;;;;;;;34.72;19.10;;;10.50;99.90;;;;;;5036532;28;20045;-64
2022/11/11 06:52:23;;;;;;;38.10;18.15;;;10.50;99.90;;;;;;5037976;28;20041;-63
2022/11/11 06:54:48;;;;;;;37.80;17.95;;;10.50;99.90;;;;;;5031150;28;20041;-65
2022/11/11 06:57:14;;;;;;;32.28;17.08;;;10.50;99.90;;;;;;5032543;28;20041;-65
2022/11/11 06:59:39;;;;;;;34.97;17.98;;;10.50;99.90;;;;;;5043629;28;20124;-65
2022/11/11 07:02:07;;;;;;;34.05;18.08;;;10.50;99.90;;;;;;5038880;28;20041;-65
2022/11/11 07:04:32;;;;;;;37.03;17.92;;;10.50;99.90;;;;;;5036474;28;20118;-64
2022/11/11 07:06:58;;;;;;;33.75;17.45;;;10.50;99.90;;;;;;5054540;28;20037;-65
2022/11/11 07:09:25;;;;;;;34.05;17.88;;;10.60;99.90;;;;;;5033839;28;20453;-63
2022/11/11 07:11:50;;;;;;;33.20;16.63;;;10.60;99.90;;;;;;5046211;28;20055;-64
2022/11/11 07:14:16;;;;;;;35.55;17.88;;;10.60;99.90;;;;;;5031308;28;20034;-63
2022/11/11 07:16:41;;;;;;;32.20;17.95;;;10.60;99.90;;;;;;5044228;28;20561;-64
2022/11/11 07:19:07;;;;;;;33.03;16.75;;;10.60;99.90;;;;;;5037715;28;20052;-67
2022/11/11 07:21:32;;;;;;;30.75;17.75;;;10.60;99.90;;;;;;5047738;28;20036;-65
2022/11/11 07:23:58;;;;;;;35.50;17.70;;;10.60;99.90;;;;;;5032178;28;20133;-65
2022/11/11 07:26:23;;;;;;;36.83;17.55;;;10.60;99.90;;;;;;5030895;28;20046;-65
2022/11/11 07:28:50;;;;;;;32.60;17.35;;;10.70;99.90;;;;;;5040349;28;20049;-64
2022/11/11 07:31:15;;;;;;;30.70;17.42;;;10.70;99.90;;;;;;5039008;28;20488;-64
2022/11/11 07:33:41;;;;;;;33.63;17.02;;;10.70;99.90;;;;;;5049538;28;20049;-64
2022/11/11 07:36:06;;;;;;;36.60;18.50;;;10.70;99.90;;;;;;5036252;28;20038;-65
2022/11/11 07:38:32;;;;;;;31.92;16.85;;;10.70;99.90;;;;;;5053866;28;20437;-65
2022/11/11 07:40:58;;;;;;;33.67;16.77;;;10.70;99.90;;;;;;5040852;28;20034;-65
2022/11/11 07:43:24;;;;;;;28.02;17.05;;;10.70;99.90;;;;;;5033279;28;20527;-64
2022/11/11 07:45:50;;;;;;;30.13;16.02;;;10.80;99.90;;;;;;5034407;28;20785;-65
2022/11/11 07:48:15;;;;;;;26.77;15.85;;;10.80;99.90;;;;;;5032650;28;20033;-64
2022/11/11 07:50:41;;;;;;;27.77;15.93;;;10.80;99.90;;;;;;5032611;28;20466;-65
2022/11/11 07:53:06;;;;;;;29.88;16.75;;;10.80;99.90;;;;;;5042879;28;20417;-65
2022/11/11 07:55:32;;;;;;;30.70;15.93;;;10.80;99.90;;;;;;5046730;28;20040;-64
2022/11/11 07:57:58;;;;;;;32.15;15.82;;;10.80;99.90;;;;;;5041964;28;20488;-64
2022/11/11 08:00:24;;;;;;;30.75;15.82;;;10.80;99.90;;;;;;5033715;28;20045;-64
2022/11/11 08:02:50;;;;;;;35.63;17.20;;;10.80;99.90;;;;;;5027449;28;20504;-65
2022/11/11 08:05:16;;;;;;;28.58;15.90;;;10.80;99.90;;;;;;5032354;28;20061;-64
2022/11/11 08:07:42;;;;;;;29.75;15.88;;;10.80;99.90;;;;;;5038549;28;20370;-63
2022/11/11 08:10:09;;;;;;;25.17;16.23;;;10.80;99.90;;;;;;5037163;28;20033;-63
2022/11/11 08:15:19;;;;;;;31.00;17.35;;;10.90;99.90;;;;;;5044200;28;20500;-66
2022/11/11 08:17:45;;;;;;;30.48;15.98;;;10.90;99.90;;;;;;5044278;28;20064;-64
2022/11/11 08:20:11;;;;;;;29.00;15.35;;;10.90;99.90;;;;;;5044670;28;20511;-64
2022/11/11 08:22:38;;;;;;;32.47;16.02;;;10.90;99.90;;;;;;5033200;28;20045;-65
2022/11/11 08:25:09;;;;;;;30.85;15.65;;;10.90;99.90;;;;;;5039334;28;20045;-64
2022/11/11 08:27:35;;;;;;;30.80;15.25;;;11.00;99.90;;;;;;5031276;28;20056;-65
2022/11/11 08:30:01;;;;;;;29.80;15.80;;;11.00;99.90;;;;;;5033651;28;20106;-64
2022/11/11 08:32:27;;;;;;;30.27;15.38;;;11.00;99.90;;;;;;5048008;28;20071;-64
2022/11/11 08:34:52;;;;;;;28.60;15.02;;;11.00;99.90;;;;;;5040462;28;20037;-65
2022/11/11 08:37:18;;;;;;;27.83;15.70;;;11.00;99.90;;;;;;5041008;28;20600;-64
2022/11/11 08:39:43;;;;;;;27.88;14.50;;;11.00;99.90;;;;;;5038679;28;20840;-66
2022/11/11 08:42:09;;;;;;;29.45;15.02;;;11.00;99.90;;;;;;5044141;28;20576;-65
2022/11/11 08:44:34;;;;;;;29.38;14.57;;;11.00;99.90;;;;;;5043637;28;20120;-64
2022/11/11 08:47:00;;;;;;;28.42;14.30;;;11.10;99.90;;;;;;5040838;28;20143;-65
2022/11/11 08:49:26;;;;;;;26.63;13.93;;;11.10;99.90;;;;;;5037732;28;20077;-65
2022/11/11 08:51:51;;;;;;;24.67;14.15;;;11.20;99.90;;;;;;5031127;28;20482;-65
2022/11/11 08:54:17;;;;;;;27.00;13.23;;;11.20;99.90;;;;;;5049100;28;20381;-64
2022/11/11 08:56:42;;;;;;;28.17;13.98;;;11.20;99.90;;;;;;5043869;28;20041;-64
2022/11/11 08:59:09;;;;;;;29.27;14.60;;;11.20;99.90;;;;;;5046356;28;20045;-65
2022/11/11 09:01:35;;;;;;;24.92;13.90;;;11.30;99.90;;;;;;5031269;28;20049;-65
2022/11/11 09:04:00;;;;;;;25.77;12.57;;;11.30;99.90;;;;;;5029939;28;20465;-65
2022/11/11 09:06:28;;;;;;;27.10;14.80;;;11.30;99.90;;;;;;5031582;28;20050;-66
2022/11/11 09:08:53;;;;;;;26.45;13.15;;;11.30;99.90;;;;;;5036861;28;20052;-65
2022/11/11 09:11:19;;;;;;;25.25;13.45;;;11.50;99.90;;;;;;5030890;28;20025;-66
2022/11/11 09:13:48;;;;;;;23.83;13.50;;;11.50;99.90;;;;;;5028724;28;20091;-64
2022/11/11 09:16:15;;;;;;;23.60;12.35;;;11.50;99.90;;;;;;5037325;28;20397;-64
2022/11/11 09:18:41;;;;;;;22.55;13.10;;;11.50;99.90;;;;;;5031439;28;20449;-66
2022/11/11 09:21:07;;;;;;;24.95;12.40;;;11.50;99.90;;;;;;5028982;28;20033;-65
2022/11/11 09:23:33;;;;;;;24.15;12.77;;;11.50;99.90;;;;;;5033920;28;20676;-64
2022/11/11 09:26:04;;;;;;;23.63;12.55;;;11.60;99.90;;;;;;5029554;28;20120;-66
2022/11/11 09:28:32;;;;;;;21.42;11.63;;;11.60;99.90;;;;;;5029504;28;20030;-65
2022/11/11 09:30:59;;;;;;;18.65;11.43;;;11.60;99.90;;;;;;5029627;28;21051;-64
2022/11/11 09:33:25;;;;;;;24.38;12.07;;;11.60;99.90;;;;;;5033988;28;20590;-64
2022/11/11 09:35:50;;;;;;;25.38;13.57;;;11.50;99.90;;;;;;5028426;28;20125;-64
2022/11/11 09:38:16;;;;;;;26.80;12.88;;;11.50;99.90;;;;;;5027765;28;20041;-64
2022/11/11 09:41:23;;;;;;;23.40;12.88;;;11.50;99.90;;;;;;5031055;28;20041;-66
2022/11/11 09:43:58;;;;;;;21.88;12.05;;;11.60;99.90;;;;;;5019660;28;20049;-65
2022/11/11 09:46:38;;;;;;;24.38;12.82;;;11.60;99.90;;;;;;5027798;28;20061;-65
2022/11/11 09:49:16;;;;;;;19.30;11.05;;;11.60;99.90;;;;;;5034004;28;20516;-66
2022/11/11 09:52:00;;;;;;;19.00;11.43;;;11.60;99.90;;;;;;5033983;28;20079;-65
2022/11/11 09:54:39;;;;;;;22.13;11.68;;;11.60;99.90;;;;;;5031201;28;20036;-64
2022/11/11 09:57:15;;;;;;;19.85;10.68;;;11.70;99.90;;;;;;5043118;28;20102;-65
2022/11/11 09:59:53;;;;;;;20.98;11.40;;;11.80;99.90;;;;;;5046909;28;20052;-65
2022/11/11 10:02:40;;;;;;;21.60;11.18;;;11.80;99.90;;;;;;5035944;28;20237;-65
2022/11/11 10:05:14;;;;;;;22.33;10.90;;;11.90;99.90;;;;;;5039237;28;20049;-65
2022/11/11 10:07:43;;;;;;;20.25;11.15;;;11.90;99.90;;;;;;5029157;28;20065;-65
2022/11/11 10:10:20;;;;;;;22.02;10.95;;;12.00;99.90;;;;;;5029889;28;20355;-66
2022/11/11 10:12:51;;;;;;;17.88;11.50;;;12.00;99.90;;;;;;5031300;28;20369;-65
2022/11/11 10:15:17;;;;;;;18.67;10.95;;;12.00;99.90;;;;;;5038433;28;20152;-65
2022/11/11 10:17:57;;;;;;;20.10;10.85;;;12.10;99.90;;;;;;5028604;28;20068;-66
2022/11/11 10:20:30;;;;;;;16.93;10.33;;;12.00;99.90;;;;;;5031790;28;20139;-65
2022/11/11 10:23:20;;;;;;;21.63;10.93;;;12.10;99.90;;;;;;5044399;28;20082;-65
2022/11/11 10:25:56;;;;;;;18.25;11.35;;;12.10;99.90;;;;;;5036214;28;20036;-66
2022/11/11 10:28:29;;;;;;;19.58;10.85;;;12.10;99.90;;;;;;5028193;28;20053;-65
2022/11/11 10:30:55;;;;;;;21.05;10.52;;;12.20;99.90;;;;;;5038719;28;20551;-65
2022/11/11 10:33:32;;;;;;;16.75;9.75;;;12.20;99.90;;;;;;5032671;28;20104;-66
2022/11/11 10:36:00;;;;;;;17.60;10.52;;;12.20;99.90;;;;;;5033475;28;20133;-65
2022/11/11 10:38:44;;;;;;;17.27;9.90;;;12.30;99.90;;;;;;5044374;28;20124;-64
2022/11/11 10:41:17;;;;;;;19.63;10.75;;;12.30;99.90;;;;;;5046996;28;20051;-66
2022/11/11 10:43:46;;;;;;;18.67;10.10;;;12.30;99.90;;;;;;5033439;28;20095;-67
2022/11/11 10:46:26;;;;;;;19.33;11.02;;;12.30;99.90;;;;;;5045481;28;20413;-66
2022/11/11 10:49:09;;;;;;;17.02;10.07;;;12.20;99.90;;;;;;5046869;28;20040;-68
2022/11/11 10:52:03;;;;;;;20.25;10.40;;;12.20;99.90;;;;;;5034188;28;20045;-67
2022/11/11 10:54:40;;;;;;;20.55;11.10;;;12.20;99.90;;;;;;5038531;28;20072;-65
2022/11/11 10:57:25;;;;;;;19.92;10.65;;;12.30;99.90;;;;;;5034494;28;20037;-67
2022/11/11 10:59:56;;;;;;;18.85;9.80;;;12.30;99.90;;;;;;5034060;28;20116;-65
2022/11/11 11:02:40;;;;;;;17.10;10.45;;;12.30;99.90;;;;;;5033017;28;20048;-66
2022/11/11 11:05:16;;;;;;;19.10;10.70;;;12.30;99.90;;;;;;5031155;28;20482;-67
2022/11/11 11:07:50;;;;;;;19.60;9.90;;;12.30;99.90;;;;;;5049922;28;20041;-64
2022/11/11 11:10:19;;;;;;;18.13;10.43;;;12.40;99.90;;;;;;5052138;28;20044;-66
2022/11/11 11:13:36;;;;;;;20.38;10.18;;;12.30;99.90;;;;;;5033265;28;20385;-67
2022/11/11 11:16:24;;;;;;;19.60;10.23;;;12.30;99.90;;;;;;5005744;28;20057;-65
2022/11/11 11:19:13;;;;;;;15.98;9.88;;;12.40;99.90;;;;;;5033576;28;20065;-66
2022/11/11 11:21:49;;;;;;;18.33;10.63;;;12.40;99.90;;;;;;5032944;28;20073;-66
2022/11/11 11:24:30;;;;;;;18.40;9.70;;;12.40;99.90;;;;;;5033250;28;20041;-65
2022/11/11 11:26:58;;;;;;;16.90;10.52;;;12.40;99.90;;;;;;5040591;28;20037;-66
2022/11/11 11:29:43;;;;;;;20.15;10.90;;;12.40;99.90;;;;;;5034477;28;20053;-66
2022/11/11 11:32:26;;;;;;;18.42;10.35;;;12.50;99.90;;;;;;5030874;28;20041;-65
2022/11/11 11:34:56;;;;;;;28.40;13.52;;;12.50;99.90;;;;;;5033211;28;20607;-66
2022/11/11 11:37:26;;;;;;;26.45;14.82;;;12.40;99.90;;;;;;5042486;28;20041;-66
2022/11/11 11:40:00;;;;;;;26.15;14.05;;;12.40;99.90;;;;;;5041136;28;20088;-65
2022/11/11 11:42:26;;;;;;;24.48;13.50;;;12.40;99.90;;;;;;5045846;28;20040;-67
2022/11/11 11:44:52;;;;;;;21.77;13.98;;;12.30;99.90;;;;;;5035722;28;20539;-65
2022/11/11 11:47:48;;;;;;;23.83;13.50;;;12.30;99.90;;;;;;5044338;28;20053;-66
2022/11/11 11:50:30;;;;;;;24.65;13.27;;;12.00;99.90;;;;;;5042181;28;20405;-66
2022/11/11 11:53:02;;;;;;;25.20;13.50;;;11.90;99.90;;;;;;5042372;28;20112;-65
2022/11/11 11:55:35;;;;;;;24.55;13.70;;;11.90;99.90;;;;;;5043349;28;20108;-66
2022/11/11 11:58:35;;;;;;;25.27;14.30;;;12.00;99.90;;;;;;5038741;28;20481;-67
2022/11/11 12:01:10;;;;;;;22.90;14.05;;;12.00;99.90;;;;;;5042908;28;20110;-65
2022/11/11 12:03:38;;;;;;;25.27;14.57;;;12.00;99.90;;;;;;5033111;28;20044;-65
2022/11/11 12:06:18;;;;;;;21.10;12.25;;;11.90;99.90;;;;;;5037402;28;20057;-65
2022/11/11 12:09:04;;;;;;;23.50;13.60;;;12.00;99.90;;;;;;5042733;28;20048;-65
2022/11/11 12:11:56;;;;;;;20.67;13.10;;;12.00;99.90;;;;;;5030288;28;20624;-65
2022/11/11 12:14:47;;;;;;;23.27;12.35;;;12.10;99.90;;;;;;5035336;28;20091;-66
2022/11/11 12:17:49;;;;;;;23.60;12.77;;;12.20;99.90;;;;;;5040224;28;20416;-67
2022/11/11 12:20:36;;;;;;;21.05;12.05;;;12.20;99.90;;;;;;5044258;28;20043;-65
2022/11/11 12:23:18;;;;;;;19.25;11.10;;;12.40;99.90;;;;;;5037046;28;20049;-66
2022/11/11 12:25:47;;;;;;;22.27;11.60;;;12.40;99.90;;;;;;5046330;28;20087;-65
2022/11/11 12:28:42;;;;;;;19.55;10.80;;;12.50;99.90;;;;;;5031925;28;20427;-66
2022/11/11 12:31:13;;;;;;;20.02;10.25;;;12.50;99.90;;;;;;5030310;28;20050;-65
2022/11/11 12:34:18;;;;;;;16.30;10.23;;;12.60;99.90;;;;;;5030629;28;20057;-66
2022/11/11 12:37:06;;;;;;;15.95;9.23;;;12.60;99.90;;;;;;5029280;28;20099;-67
2022/11/11 12:39:57;;;;;;;16.10;10.00;;;12.60;99.90;;;;;;5031386;28;20660;-66
2022/11/11 12:42:45;;;;;;;16.27;9.05;;;12.60;99.90;;;;;;5031529;28;20057;-66
2022/11/11 12:45:37;;;;;;;15.32;9.30;;;12.60;99.90;;;;;;5041160;28;20036;-66
2022/11/11 12:48:40;;;;;;;17.45;10.20;;;12.70;99.90;;;;;;5045256;28;20056;-67
2022/11/11 12:51:36;;;;;;;14.75;9.07;;;12.70;99.90;;;;;;5030418;28;20051;-65
2022/11/11 12:54:39;;;;;;;14.85;9.80;;;12.70;99.90;;;;;;5032343;28;20458;-66
2022/11/11 12:57:32;;;;;;;18.08;9.48;;;12.80;99.90;;;;;;5040099;28;20762;-66
2022/11/11 13:00:08;;;;;;;15.98;9.32;;;12.90;99.90;;;;;;5030861;28;20080;-66
2022/11/11 13:03:02;;;;;;;15.13;9.23;;;12.90;99.90;;;;;;5031513;28;20043;-66
2022/11/11 13:05:36;;;;;;;13.15;8.25;;;13.00;99.90;;;;;;5032136;28;20416;-65
2022/11/11 13:08:27;;;;;;;14.32;8.35;;;13.00;99.90;;;;;;5049885;28;20123;-65
2022/11/11 13:11:25;;;;;;;14.00;8.88;;;13.00;99.90;;;;;;5040103;28;20051;-66
2022/11/11 13:14:09;;;;;;;16.80;9.27;;;12.90;99.90;;;;;;5030392;28;20044;-68
2022/11/11 13:16:35;;;;;;;15.25;8.77;;;12.70;99.90;;;;;;5035442;28;20033;-65
2022/11/11 13:19:12;;;;;;;13.45;8.77;;;12.70;99.90;;;;;;5039783;28;20567;-66
2022/11/11 13:21:51;;;;;;;16.38;9.60;;;12.70;99.90;;;;;;5030394;28;20043;-66
2022/11/11 13:24:21;;;;;;;15.40;8.55;;;12.70;99.90;;;;;;5030739;28;20140;-65
2022/11/11 13:27:12;;;;;;;13.43;8.95;;;12.60;99.90;;;;;;5031718;28;20038;-66
2022/11/11 13:29:47;;;;;;;14.05;8.10;;;12.60;99.90;;;;;;5018340;28;20094;-66
2022/11/11 13:32:17;;;;;;;14.82;9.38;;;12.60;99.90;;;;;;5039546;28;20119;-66
2022/11/11 13:34:43;;;;;;;15.37;9.07;;;12.60;99.90;;;;;;5030586;28;20397;-66
2022/11/11 13:37:23;;;;;;;12.90;7.97;;;12.50;99.90;;;;;;5040182;28;20033;-65
2022/11/11 13:39:51;;;;;;;13.45;8.60;;;12.50;99.90;;;;;;5016058;28;20099;-65
2022/11/11 13:42:26;;;;;;;14.27;8.38;;;12.50;99.90;;;;;;5046202;28;20642;-66
2022/11/11 13:44:55;;;;;;;13.88;8.77;;;12.50;99.90;;;;;;5038237;28;20045;-66
2022/11/11 13:47:26;;;;;;;17.40;9.88;;;12.50;99.90;;;;;;5029903;28;20046;-66
2022/11/11 13:49:54;;;;;;;;;;;12.50;99.90;;;;;;5034858;28;20042;-65
2022/11/11 13:52:23;;;;;;;19.90;9.85;;;12.40;99.90;;;;;;5043490;28;19939;-65
2022/11/11 13:55:01;;;;;;;18.70;9.43;;;12.40;99.90;;;;;;5038607;28;20468;-65
2022/11/11 13:57:30;;;;;;;21.42;9.93;;;12.30;99.90;;;;;;5033644;28;20157;-65
2022/11/11 14:00:02;;;;;;;17.03;9.20;;;12.30;99.90;;;;;;5037827;28;20033;-65
2022/11/11 14:02:30;;;;;;;13.10;9.10;;;12.30;99.90;;;;;;5044321;28;20060;-65
2022/11/11 14:05:02;;;;;;;14.90;9.68;;;12.30;99.90;;;;;;5038542;28;20143;-65
2022/11/11 14:07:48;;;;;;;15.13;9.05;;;12.30;99.90;;;;;;5036019;28;20644;-65